Time;durP1;ratioP1;P1;durP2;ratioP2;P2;SDS_P1;SDS_P2;PMS_P1;PMS_P2;Temp;Humidity;BMP_temperature;BMP_pressure;BME280_temperature;BME280_humidity;BME280_pressure;Samples;Min_cycle;Max_cycle;Signal;HPM_P1;HPM_P2
2022/01/21 00:00:34;;;;;;;2.17;1.38;;;;;;;16.91;44.19;103204.78;5043975;28;20136;-52
2022/01/21 00:02:59;;;;;;;2.53;1.55;;;;;;;16.88;44.20;103198.72;5044122;28;20037;-50
2022/01/21 00:05:24;;;;;;;2.88;1.40;;;;;;;16.88;44.15;103199.59;5043803;28;20029;-47
2022/01/21 00:07:50;;;;;;;2.65;1.33;;;;;;;16.87;44.16;103203.25;5043551;28;20029;-54
2022/01/21 00:10:15;;;;;;;1.95;1.23;;;;;;;16.88;44.33;103212.16;5043281;28;20048;-49
2022/01/21 00:12:41;;;;;;;1.58;1.27;;;;;;;16.86;44.27;103208.69;5044104;28;20029;-49
2022/01/21 00:15:07;;;;;;;3.03;1.50;;;;;;;16.85;44.24;103215.91;5043660;28;20033;-52
2022/01/21 00:17:33;;;;;;;2.17;1.20;;;;;;;16.85;44.27;103210.53;5043859;28;20041;-50
2022/01/21 00:30:54;;;;;;;1.80;1.30;;;;;;;16.82;44.28;103216.13;5043550;28;20083;-50
2022/01/21 00:33:19;;;;;;;2.28;1.27;;;;;;;16.81;44.23;103217.06;5043576;28;20512;-50
2022/01/21 00:35:45;;;;;;;3.30;1.60;;;;;;;16.79;44.26;103231.56;5043280;28;20037;-52
2022/01/21 00:38:13;;;;;;;1.90;1.20;;;;;;;16.77;44.12;103217.34;5043141;28;20055;-50
2022/01/21 00:40:38;;;;;;;1.80;1.20;;;;;;;16.82;44.11;103220.59;5042577;28;20049;-51
2022/01/21 00:43:29;;;;;;;1.52;1.25;;;;;;;16.80;44.21;103219.84;5043518;28;20048;-47
2022/01/21 00:45:54;;;;;;;1.92;1.38;;;;;;;16.79;44.12;103216.31;5043422;28;20108;-51
2022/01/21 00:48:19;;;;;;;4.28;1.50;;;;;;;16.78;44.20;103219.06;5043211;28;20033;-51
2022/01/21 00:50:47;;;;;;;1.95;1.13;;;;;;;16.76;44.25;103213.81;5043312;28;20029;-50
2022/01/21 00:53:13;;;;;;;3.20;1.23;;;;;;;16.76;44.17;103215.63;5042949;28;20040;-48
2022/01/21 00:55:38;;;;;;;3.30;1.83;;;;;;;16.75;44.23;103230.91;5042790;28;20116;-51
2022/01/21 00:58:04;;;;;;;2.83;0.90;;;;;;;16.72;44.24;103221.19;5025548;28;20041;-50
2022/01/21 01:00:29;;;;;;;1.00;0.85;;;;;;;16.69;44.27;103216.00;5039131;28;20072;-49
2022/01/21 01:02:54;;;;;;;1.95;1.10;;;;;;;16.70;44.18;103222.25;5023609;28;20037;-48
2022/01/21 01:05:19;;;;;;;1.63;1.17;;;;;;;16.70;44.32;103231.16;5023061;28;20068;-52
2022/01/21 01:07:45;;;;;;;1.60;1.33;;;;;;;16.69;44.27;103232.13;5036237;28;20037;-50
2022/01/21 01:10:16;;;;;;;2.95;1.30;;;;;;;16.68;44.23;103229.53;5042579;28;20026;-47
2022/01/21 01:12:59;;;;;;;2.13;1.27;;;;;;;16.68;44.38;103230.38;5043547;28;20022;-52
2022/01/21 01:21:09;;;;;;;1.48;1.25;;;;;;;16.62;44.19;103217.34;4993608;28;20041;-48
2022/01/21 01:23:50;;;;;;;2.35;1.23;;;;;;;16.62;44.20;103224.56;4986753;28;20411;-50
2022/01/21 01:29:00;;;;;;;2.33;1.00;;;;;;;16.58;44.30;103229.25;5001062;28;20117;-48
2022/01/21 01:31:25;;;;;;;1.75;1.10;;;;;;;16.58;44.23;103245.38;5001020;28;20046;-49
2022/01/21 01:33:50;;;;;;;1.73;1.00;;;;;;;16.57;44.24;103238.28;5000841;28;20045;-52
2022/01/21 01:36:15;;;;;;;2.05;1.30;;;;;;;16.56;44.21;103249.09;5001903;28;20065;-51
2022/01/21 01:41:11;;;;;;;1.88;1.20;;;;;;;16.45;44.11;103226.47;4987902;28;20043;-50
2022/01/21 01:51:48;;;;;;;1.45;1.20;;;;;;;16.53;44.27;103241.25;4984992;28;20077;-53
2022/01/21 01:54:15;;;;;;;1.88;1.40;;;;;;;16.50;44.24;103229.72;4987124;28;20030;-50
2022/01/21 01:56:46;;;;;;;1.30;1.10;;;;;;;16.50;44.28;103224.34;5039793;28;20029;-48
2022/01/21 01:59:11;;;;;;;2.28;1.10;;;;;;;16.50;44.21;103218.13;5046261;28;20022;-50
2022/01/21 02:01:36;;;;;;;2.30;1.27;;;;;;;16.50;44.35;103213.63;5046208;28;20048;-50
2022/01/21 02:04:02;;;;;;;1.75;1.10;;;;;;;16.47;44.35;103207.56;5046144;28;20057;-49
2022/01/21 02:06:27;;;;;;;2.13;1.23;;;;;;;16.49;44.31;103217.25;5045614;28;20108;-48
2022/01/21 02:08:53;;;;;;;1.73;1.40;;;;;;;16.48;44.30;103207.50;5046034;28;20044;-47
2022/01/21 02:11:18;;;;;;;1.10;1.00;;;;;;;16.48;44.26;103207.50;5045471;28;20033;-51
2022/01/21 02:13:47;;;;;;;1.30;1.20;;;;;;;16.49;44.39;103200.28;5046102;28;20056;-53
2022/01/21 02:21:30;;;;;;;1.45;1.08;;;;;;;16.47;44.28;103204.88;5045829;28;20037;-51
2022/01/21 02:23:55;;;;;;;1.80;1.10;;;;;;;16.46;44.27;103203.16;5027402;28;20075;-53
2022/01/21 02:26:21;;;;;;;1.52;1.10;;;;;;;16.46;44.30;103219.28;5030102;28;20034;-48
2022/01/21 02:28:46;;;;;;;2.05;1.10;;;;;;;16.45;44.31;103221.09;5026003;28;20119;-50
2022/01/21 02:31:12;;;;;;;1.27;1.05;;;;;;;16.45;44.31;103223.78;5025961;28;20095;-52
2022/01/21 02:33:37;;;;;;;1.60;1.17;;;;;;;16.45;44.37;103214.88;5026048;28;20044;-52
2022/01/21 02:36:02;;;;;;;2.33;1.40;;;;;;;16.44;44.27;103224.75;5025586;28;20404;-52
2022/01/21 02:38:28;;;;;;;2.03;1.30;;;;;;;16.44;44.29;103218.53;5025502;28;20080;-48
2022/01/21 02:40:53;;;;;;;2.55;1.10;;;;;;;16.45;44.31;103220.25;5038888;28;20159;-49
2022/01/21 02:43:21;;;;;;;1.45;1.10;;;;;;;16.45;44.23;103229.16;5045604;28;20465;-50
2022/01/21 02:45:47;;;;;;;1.50;1.00;;;;;;;16.45;44.30;103222.94;5045574;28;20037;-53
2022/01/21 02:48:12;;;;;;;1.70;1.20;;;;;;;16.42;44.24;103221.28;5044614;28;20022;-50
2022/01/21 02:50:38;;;;;;;1.40;1.02;;;;;;;16.44;44.21;103221.22;5045308;28;20026;-49
2022/01/21 02:55:47;;;;;;;2.17;1.25;;;;;;;16.41;44.28;103214.19;5044783;28;20034;-49
2022/01/21 02:58:12;;;;;;;1.83;1.20;;;;;;;16.41;44.25;103219.56;5043462;28;20032;-50
2022/01/21 03:00:37;;;;;;;1.00;0.90;;;;;;;16.41;44.29;103221.38;5045026;28;20059;-52
2022/01/21 03:03:04;;;;;;;1.85;1.48;;;;;;;16.41;44.22;103216.88;5045322;28;20021;-51
2022/01/21 03:05:29;;;;;;;1.30;1.02;;;;;;;16.41;44.27;103214.19;5044885;28;20081;-50
2022/01/21 03:07:54;;;;;;;1.30;1.00;;;;;;;16.41;44.21;103218.72;5044629;28;20044;-50
2022/01/21 03:10:20;;;;;;;1.50;1.00;;;;;;;16.39;44.29;103216.09;5040740;28;20029;-51
2022/01/21 03:12:45;;;;;;;2.72;1.10;;;;;;;16.38;44.17;103219.75;5040719;28;20033;-53
2022/01/21 03:15:10;;;;;;;1.13;0.80;;;;;;;16.39;44.20;103228.66;5044847;28;20047;-50
2022/01/21 03:17:36;;;;;;;1.55;1.17;;;;;;;16.37;44.14;103239.50;5044600;28;20040;-47
2022/01/21 03:20:02;;;;;;;1.00;0.90;;;;;;;16.37;44.12;103233.28;5060202;28;20025;-49
2022/01/21 03:22:27;;;;;;;2.35;1.00;;;;;;;16.36;44.21;103240.47;5064494;28;20036;-51
2022/01/21 03:24:53;;;;;;;1.48;1.00;;;;;;;16.35;44.30;103241.41;5064160;28;20021;-49
2022/01/21 03:27:18;;;;;;;1.10;1.00;;;;;;;16.35;44.18;103238.72;5059041;28;20481;-50
2022/01/21 03:29:44;;;;;;;0.98;0.90;;;;;;;16.35;44.23;103237.88;5064695;28;20031;-48
2022/01/21 03:32:09;;;;;;;1.63;0.93;;;;;;;16.35;44.19;103243.22;5064504;28;20033;-48
2022/01/21 03:34:35;;;;;;;2.22;1.08;;;;;;;16.33;44.24;103245.16;5064297;28;20089;-51
2022/01/21 03:37:00;;;;;;;1.58;0.95;;;;;;;16.32;44.19;103244.31;5064284;28;20671;-51
2022/01/21 03:39:25;;;;;;;1.25;1.00;;;;;;;16.32;44.19;103243.44;5061454;28;20048;-46
2022/01/21 03:41:51;;;;;;;2.38;1.25;;;;;;;16.30;44.15;103243.53;5038201;28;20082;-50
2022/01/21 03:44:16;;;;;;;0.90;0.90;;;;;;;16.29;44.21;103236.44;5044459;28;20029;-51
2022/01/21 03:46:41;;;;;;;0.90;0.80;;;;;;;16.28;44.20;103237.41;5044218;28;20079;-50
2022/01/21 03:49:08;;;;;;;1.40;1.30;;;;;;;16.25;44.25;103229.53;5044108;28;20056;-51
2022/01/21 03:51:33;;;;;;;1.02;0.93;;;;;;;16.24;44.29;103225.13;5044108;28;20027;-51
2022/01/21 03:53:59;;;;;;;1.55;1.00;;;;;;;16.27;44.27;103227.63;5044247;28;20480;-51
2022/01/21 03:56:24;;;;;;;1.10;1.00;;;;;;;16.24;44.19;103222.44;5043784;28;20051;-51
2022/01/21 03:58:49;;;;;;;2.40;1.10;;;;;;;16.25;44.22;103229.53;5044128;28;20029;-48
2022/01/21 04:01:15;;;;;;;1.13;0.90;;;;;;;16.25;44.14;103225.00;5044034;28;20083;-52
2022/01/21 04:03:40;;;;;;;2.90;1.67;;;;;;;16.24;44.24;103214.38;5044240;28;20026;-47
2022/01/21 04:06:05;;;;;;;1.75;0.90;;;;;;;16.23;44.25;103204.63;5043768;28;20064;-49
2022/01/21 04:08:30;;;;;;;1.33;1.00;;;;;;;16.23;44.25;103209.97;5025856;28;20072;-50
2022/01/21 04:10:56;;;;;;;2.03;1.10;;;;;;;16.22;44.14;103217.16;5025364;28;20616;-48
2022/01/21 04:13:23;;;;;;;1.70;1.08;;;;;;;16.21;44.32;103220.78;5027965;28;20413;-53
2022/01/21 04:15:54;;;;;;;1.17;0.80;;;;;;;16.21;44.13;103212.75;5026321;28;20048;-51
2022/01/21 04:18:19;;;;;;;1.40;1.30;;;;;;;16.20;44.20;103213.72;5043629;28;20068;-48
2022/01/21 04:20:46;;;;;;;1.98;1.20;;;;;;;16.16;44.14;103212.16;5043496;28;20025;-51
2022/01/21 04:23:13;;;;;;;1.42;1.00;;;;;;;16.20;44.19;103223.59;5043516;28;20025;-48
2022/01/21 04:25:39;;;;;;;1.50;1.00;;;;;;;16.20;44.33;103220.91;5043061;28;20028;-48
2022/01/21 04:28:04;;;;;;;1.15;0.85;;;;;;;16.18;44.19;103218.31;5043620;28;20029;-52
2022/01/21 04:30:30;;;;;;;1.58;1.20;;;;;;;16.18;44.08;103212.06;5043635;28;20067;-50
2022/01/21 04:32:55;;;;;;;1.75;1.10;;;;;;;16.17;44.16;103207.66;5043682;28;20059;-47
2022/01/21 04:35:20;;;;;;;1.20;1.10;;;;;;;16.17;44.06;103213.03;5043348;28;20029;-51
2022/01/21 04:37:53;;;;;;;1.33;1.00;;;;;;;16.17;44.05;103221.09;5043344;28;20022;-49
2022/01/21 04:40:21;;;;;;;0.90;0.90;;;;;;;16.17;44.14;103223.75;5048077;28;20049;-48
2022/01/21 04:48:14;;;;;;;1.30;1.00;;;;;;;16.14;44.15;103216.78;5043548;28;20056;-49
2022/01/21 04:50:51;;;;;;;1.40;0.90;;;;;;;16.14;44.10;103227.53;5043052;28;20025;-50
2022/01/21 04:53:16;;;;;;;1.85;1.00;;;;;;;16.14;44.17;103218.56;5043239;28;20022;-51
2022/01/21 04:55:41;;;;;;;1.10;0.80;;;;;;;16.12;44.15;103224.03;5042773;28;20402;-47
2022/01/21 04:58:06;;;;;;;1.35;1.00;;;;;;;16.13;44.06;103227.59;5043282;28;20386;-48
2022/01/21 05:00:32;;;;;;;0.85;0.85;;;;;;;16.11;44.07;103227.69;5043195;28;20641;-51
2022/01/21 05:02:57;;;;;;;2.08;1.00;;;;;;;16.12;44.16;103231.25;5042145;28;20445;-51
2022/01/21 05:05:22;;;;;;;1.42;1.10;;;;;;;16.10;44.06;103228.66;5043100;28;20033;-51
2022/01/21 05:07:48;;;;;;;1.10;0.80;;;;;;;16.10;44.16;103225.97;5042908;28;20041;-52
2022/01/21 05:10:13;;;;;;;1.40;1.00;;;;;;;16.12;44.09;103225.88;5042581;28;20034;-48
2022/01/21 05:12:38;;;;;;;1.00;0.90;;;;;;;16.09;44.05;103224.22;5046197;28;20060;-50
2022/01/21 05:15:13;;;;;;;1.05;0.95;;;;;;;16.11;44.04;103232.19;5047235;28;20038;-51
2022/01/21 05:17:48;;;;;;;1.13;1.02;;;;;;;16.09;44.15;103228.72;5046525;28;20093;-48
2022/01/21 05:20:14;;;;;;;1.20;0.90;;;;;;;16.09;44.02;103236.78;5046262;28;20028;-51
2022/01/21 05:22:39;;;;;;;1.20;1.10;;;;;;;16.10;44.10;103235.81;5046428;28;20029;-48
2022/01/21 05:25:05;;;;;;;1.25;1.00;;;;;;;16.09;44.07;103232.28;5041190;28;20065;-49
2022/01/21 05:27:30;;;;;;;1.13;0.90;;;;;;;16.10;44.19;103220.63;5046922;28;20061;-49
2022/01/21 05:29:56;;;;;;;0.88;0.88;;;;;;;16.11;43.91;103226.84;5046162;28;20101;-47
2022/01/21 05:32:21;;;;;;;1.80;0.90;;;;;;;16.11;44.26;103218.78;5046300;28;20029;-49
2022/01/21 05:34:46;;;;;;;1.25;0.82;;;;;;;16.11;44.26;103224.16;5046034;28;20033;-51
2022/01/21 05:37:12;;;;;;;1.02;0.95;;;;;;;16.10;44.23;103223.28;5043260;28;20036;-50
2022/01/21 05:39:37;;;;;;;1.10;0.98;;;;;;;16.11;44.33;103241.13;5045830;28;20121;-53
2022/01/21 05:42:04;;;;;;;1.27;0.90;;;;;;;16.10;44.36;103231.34;5044419;28;20022;-51
2022/01/21 05:46:59;;;;;;;0.80;0.80;;;;;;;16.12;44.48;103234.78;5046059;28;20013;-51
2022/01/21 05:49:26;;;;;;;1.00;0.90;;;;;;;16.12;44.52;103236.59;5044458;28;20009;-48
2022/01/21 05:51:54;;;;;;;1.45;0.90;;;;;;;16.11;44.51;103233.06;5045931;28;20029;-49
2022/01/21 05:54:24;;;;;;;1.70;1.00;;;;;;;16.13;44.65;103241.88;5045830;28;20076;-50
2022/01/21 05:56:50;;;;;;;1.42;1.10;;;;;;;16.12;44.59;103240.16;5045546;28;20021;-50
2022/01/21 05:59:15;;;;;;;0.98;0.88;;;;;;;16.14;44.63;103245.41;5045682;28;20025;-49
2022/01/21 06:01:40;;;;;;;1.13;0.98;;;;;;;16.10;44.67;103234.03;5045605;28;20029;-51
2022/01/21 06:04:06;;;;;;;1.00;0.90;;;;;;;16.10;44.65;103241.19;5027467;28;20031;-49
2022/01/21 06:06:32;;;;;;;1.05;1.00;;;;;;;16.14;44.65;103249.00;5024983;28;20558;-51
2022/01/21 06:08:58;;;;;;;1.48;1.00;;;;;;;16.12;44.82;103250.03;5045460;28;20028;-49
2022/01/21 06:11:23;;;;;;;2.40;0.90;;;;;;;16.14;44.71;103256.16;5026974;28;20597;-50
2022/01/21 06:13:50;;;;;;;0.77;0.77;;;;;;;16.14;44.82;103251.66;5045635;28;20034;-51
2022/01/21 06:16:16;;;;;;;2.85;1.13;;;;;;;16.15;44.81;103264.13;5045477;28;20025;-52
2022/01/21 06:18:42;;;;;;;1.13;1.00;;;;;;;16.15;44.37;103258.75;5045472;28;20109;-50
2022/01/21 06:21:07;;;;;;;1.75;1.13;;;;;;;16.16;44.76;103255.09;5044966;28;20026;-51
2022/01/21 06:23:32;;;;;;;1.10;0.95;;;;;;;16.16;44.79;103260.47;5044090;28;20089;-50
2022/01/21 06:25:57;;;;;;;1.13;0.82;;;;;;;16.17;44.88;103250.59;5043967;28;20034;-49
2022/01/21 06:28:24;;;;;;;0.80;0.80;;;;;;;16.15;44.89;103258.75;5045213;28;20052;-50
2022/01/21 06:30:49;;;;;;;1.05;0.77;;;;;;;16.14;44.93;103261.50;5044978;28;20017;-50
2022/01/21 06:33:15;;;;;;;0.80;0.80;;;;;;;16.19;44.86;103259.44;5045274;28;20529;-47
2022/01/21 06:35:41;;;;;;;1.05;0.90;;;;;;;16.20;44.82;103267.38;5044875;28;20112;-48
2022/01/21 06:38:06;;;;;;;1.55;1.15;;;;;;;16.20;44.92;103267.38;5044572;28;20021;-48
2022/01/21 06:40:31;;;;;;;1.25;0.80;;;;;;;16.22;44.84;103272.66;5043979;28;20041;-52
2022/01/21 06:43:01;;;;;;;1.58;0.82;;;;;;;16.21;44.96;103266.41;5044676;28;20474;-52
2022/01/21 06:45:26;;;;;;;1.27;0.80;;;;;;;16.21;44.83;103277.16;5026533;28;20034;-49
2022/01/21 06:47:52;;;;;;;1.85;1.08;;;;;;;16.16;44.84;103271.22;5037955;28;20044;-51
2022/01/21 06:50:17;;;;;;;0.70;0.70;;;;;;;16.23;44.91;103277.09;5031392;28;20070;-51
2022/01/21 06:52:42;;;;;;;1.15;0.90;;;;;;;16.22;45.05;103278.03;5028233;28;20061;-50
2022/01/21 06:55:08;;;;;;;1.45;0.90;;;;;;;16.17;45.02;103266.72;5040361;28;20037;-50
2022/01/21 06:57:38;;;;;;;1.08;1.02;;;;;;;16.22;44.98;103278.88;5034072;28;20038;-50
2022/01/21 07:00:04;;;;;;;1.15;0.80;;;;;;;16.24;44.98;103281.50;5018728;28;20110;-52
2022/01/21 07:02:30;;;;;;;1.23;0.80;;;;;;;16.21;45.01;103293.25;5017017;28;20107;-49
2022/01/21 07:04:55;;;;;;;0.82;0.80;;;;;;;16.23;45.16;103294.06;5030267;28;20034;-45
2022/01/21 07:07:20;;;;;;;0.80;0.80;;;;;;;16.25;45.13;103293.94;5027028;28;20037;-49
2022/01/21 07:09:46;;;;;;;1.90;0.80;;;;;;;16.26;45.21;103309.09;5033193;28;20025;-46
2022/01/21 07:12:11;;;;;;;0.85;0.85;;;;;;;16.25;45.22;103310.06;5032136;28;20030;-47
2022/01/21 07:14:36;;;;;;;0.80;0.80;;;;;;;16.27;45.15;103304.56;5017261;28;20040;-48
2022/01/21 07:17:02;;;;;;;0.95;0.82;;;;;;;16.28;45.21;103299.13;5037605;28;20056;-46
2022/01/21 07:19:28;;;;;;;1.35;1.00;;;;;;;16.31;45.46;103293.59;5036407;28;20030;-44
2022/01/21 07:21:53;;;;;;;1.58;1.05;;;;;;;16.37;45.26;103293.22;5034537;28;20025;-51
2022/01/21 07:24:19;;;;;;;2.22;1.25;;;;;;;16.42;45.01;103291.09;5032446;28;20076;-47
2022/01/21 07:26:44;;;;;;;1.13;0.98;;;;;;;16.49;45.11;103288.91;5030544;28;20029;-47
2022/01/21 07:29:09;;;;;;;1.98;1.42;;;;;;;16.53;44.92;103292.28;5026932;28;20025;-44
2022/01/21 07:31:35;;;;;;;3.67;1.00;;;;;;;16.55;44.75;103291.19;5027229;28;20054;-46
2022/01/21 07:34:04;;;;;;;3.13;1.23;;;;;;;16.53;44.85;103274.34;5019441;28;20029;-44
2022/01/21 07:36:30;;;;;;;1.15;1.02;;;;;;;16.61;44.59;103282.78;5027156;28;20895;-50
2022/01/21 07:38:55;;;;;;;3.05;1.20;;;;;;;16.64;44.63;103289.75;5026650;28;20091;-45
2022/01/21 07:41:20;;;;;;;1.80;1.17;;;;;;;16.67;44.57;103289.59;5026331;28;20046;-47
2022/01/21 07:43:45;;;;;;;2.63;1.20;;;;;;;16.69;44.47;103287.66;5014914;28;20029;-48
2022/01/21 07:46:11;;;;;;;2.08;1.08;;;;;;;16.68;44.34;103291.31;5025479;28;20042;-46
2022/01/21 07:48:36;;;;;;;2.08;1.10;;;;;;;16.73;44.35;103286.53;5022764;28;20040;-49
2022/01/21 07:51:01;;;;;;;3.47;1.00;;;;;;;16.70;44.31;103274.13;5023023;28;20026;-45
2022/01/21 07:53:26;;;;;;;2.28;1.23;;;;;;;16.77;44.33;103280.00;5018042;28;20092;-45
2022/01/21 07:55:52;;;;;;;1.38;0.90;;;;;;;16.78;43.89;103283.56;5022886;28;20064;-47
2022/01/21 07:58:18;;;;;;;3.97;1.15;;;;;;;16.75;44.03;103276.56;5027655;28;20026;-47
2022/01/21 08:00:43;;;;;;;2.70;1.20;;;;;;;16.82;44.16;103285.09;5032676;28;20018;-51
2022/01/21 08:03:09;;;;;;;2.33;1.45;;;;;;;16.82;44.05;103285.97;5026676;28;20025;-49
2022/01/21 08:05:34;;;;;;;1.75;0.98;;;;;;;16.81;43.98;103291.44;5034606;28;20067;-52
2022/01/21 08:08:01;;;;;;;1.30;0.95;;;;;;;16.84;44.13;103278.66;5018972;28;20030;-53
2022/01/21 08:10:27;;;;;;;4.15;1.27;;;;;;;16.85;43.97;103277.69;5029217;28;20025;-54
2022/01/21 08:12:52;;;;;;;1.67;1.05;;;;;;;16.87;43.97;103286.53;5022959;28;20144;-48
2022/01/21 08:15:17;;;;;;;1.70;0.95;;;;;;;16.90;43.88;103286.31;5023795;28;20037;-51
2022/01/21 08:17:43;;;;;;;2.25;1.23;;;;;;;16.93;43.85;103283.44;5014409;28;20093;-49
2022/01/21 08:20:08;;;;;;;1.25;0.90;;;;;;;16.96;43.75;103280.56;5032197;28;20037;-47
2022/01/21 08:22:34;;;;;;;1.60;1.10;;;;;;;16.99;43.82;103277.69;5022318;28;20029;-44
2022/01/21 08:24:59;;;;;;;2.15;0.90;;;;;;;17.03;43.28;103272.97;5017955;28;20044;-51
2022/01/21 08:27:24;;;;;;;1.95;0.98;;;;;;;17.08;43.52;103264.63;5024728;28;20041;-50
2022/01/21 08:29:50;;;;;;;3.50;1.25;;;;;;;17.12;43.49;103274.19;5023153;28;20053;-48
2022/01/21 08:32:15;;;;;;;0.95;0.73;;;;;;;17.16;43.34;103270.34;5026306;28;20047;-44
2022/01/21 08:34:41;;;;;;;1.10;0.90;;;;;;;17.19;43.26;103273.69;5008794;28;20034;-48
2022/01/21 08:37:06;;;;;;;2.55;1.27;;;;;;;17.22;43.18;103273.50;5035625;28;20055;-51
2022/01/21 08:39:32;;;;;;;1.25;0.98;;;;;;;17.27;43.06;103275.91;5032410;28;20072;-48
2022/01/21 08:41:58;;;;;;;1.15;0.75;;;;;;;17.43;42.91;103282.00;5018437;28;20021;-52
2022/01/21 08:44:23;;;;;;;3.08;0.95;;;;;;;17.77;42.62;103285.16;5018078;28;20085;-55
2022/01/21 08:46:48;;;;;;;2.10;1.00;;;;;;;18.13;41.69;103276.41;5042325;28;20048;-52
2022/01/21 08:49:13;;;;;;;3.58;1.13;;;;;;;18.53;40.96;103286.25;5039768;28;20072;-51
2022/01/21 08:51:48;;;;;;;1.20;0.70;;;;;;;18.73;40.39;103283.00;5029115;28;20034;-52
2022/01/21 08:54:15;;;;;;;1.10;0.90;;;;;;;18.87;39.90;103277.50;5031760;28;20053;-52
2022/01/21 08:56:40;;;;;;;1.10;0.70;;;;;;;19.02;39.64;103286.28;5035735;28;20044;-54
2022/01/21 08:59:06;;;;;;;1.48;0.65;;;;;;;19.16;39.21;103290.69;5042946;28;20029;-54
2022/01/21 09:01:31;;;;;;;1.23;0.70;;;;;;;19.29;38.90;103277.16;5043330;28;20114;-50
2022/01/21 09:03:56;;;;;;;1.40;0.77;;;;;;;19.51;38.49;103287.22;5026540;28;20045;-50
2022/01/21 09:06:23;;;;;;;1.73;0.68;;;;;;;19.83;38.33;103282.09;5039419;28;20036;-52
2022/01/21 09:08:48;;;;;;;2.22;0.80;;;;;;;20.17;37.50;103283.91;5032605;28;20029;-52
2022/01/21 09:11:13;;;;;;;2.97;0.70;;;;;;;20.49;36.90;103287.81;5042850;28;20030;-54
2022/01/21 09:13:41;;;;;;;2.80;1.00;;;;;;;20.64;36.26;103292.84;5043290;28;20084;-49
2022/01/21 09:16:07;;;;;;;3.30;0.90;;;;;;;20.61;36.11;103292.25;5043064;28;20079;-53
2022/01/21 09:18:46;;;;;;;1.88;0.80;;;;;;;20.42;36.32;103292.81;5043197;28;20075;-54
2022/01/21 09:21:13;;;;;;;2.13;0.80;;;;;;;20.10;36.59;103293.50;5055857;28;20036;-51
2022/01/21 09:23:39;;;;;;;2.22;0.82;;;;;;;19.80;37.10;103301.25;5053467;28;20065;-52
2022/01/21 09:26:05;;;;;;;2.60;1.13;;;;;;;19.50;37.80;103297.16;5046140;28;20025;-52
2022/01/21 09:28:30;;;;;;;2.53;0.80;;;;;;;19.23;37.92;103291.94;5062840;28;20062;-51
2022/01/21 09:30:55;;;;;;;3.00;0.90;;;;;;;19.01;38.56;103295.34;5063029;28;20025;-53
2022/01/21 09:33:20;;;;;;;3.10;1.08;;;;;;;18.84;38.90;103295.72;5062907;28;20477;-53
2022/01/21 09:35:46;;;;;;;2.58;0.80;;;;;;;18.74;38.74;103295.53;5044621;28;20025;-53
2022/01/21 09:38:11;;;;;;;1.40;0.95;;;;;;;18.65;39.09;103291.63;5062592;28;20033;-52
2022/01/21 09:40:43;;;;;;;4.68;1.23;;;;;;;18.62;39.21;103297.22;5012207;28;20045;-47
2022/01/21 09:43:08;;;;;;;3.63;0.95;;;;;;;18.55;39.39;103295.06;5022353;28;20363;-51
2022/01/21 09:45:34;;;;;;;1.75;0.75;;;;;;;18.57;39.56;103299.38;5004896;28;20037;-52
2022/01/21 09:48:04;;;;;;;2.20;0.90;;;;;;;18.56;39.32;103302.16;5022885;28;20026;-49
2022/01/21 09:50:29;;;;;;;1.75;1.00;;;;;;;18.54;39.62;103307.66;5022767;28;20430;-54
2022/01/21 09:52:55;;;;;;;1.23;0.70;;;;;;;18.54;39.78;103304.13;5022933;28;20033;-52
2022/01/21 09:55:22;;;;;;;1.50;0.85;;;;;;;18.50;39.80;103311.53;5015219;28;20156;-52
2022/01/21 09:57:49;;;;;;;1.95;1.00;;;;;;;18.45;39.94;103308.31;5024581;28;20494;-51
2022/01/21 10:00:15;;;;;;;1.95;0.90;;;;;;;18.42;39.79;103311.22;5026432;28;20030;-53
2022/01/21 10:02:41;;;;;;;2.72;1.00;;;;;;;18.40;39.76;103313.19;5026514;28;20055;-50
2022/01/21 10:05:07;;;;;;;2.33;1.20;;;;;;;18.37;40.19;103308.84;5026318;28;20056;-53
2022/01/21 10:07:34;;;;;;;1.75;0.95;;;;;;;18.37;40.25;103310.69;5008594;28;20040;-50
2022/01/21 10:10:06;;;;;;;2.88;1.55;;;;;;;18.36;39.86;103311.66;5025631;28;20046;-50
2022/01/21 10:12:31;;;;;;;2.40;1.00;;;;;;;18.35;39.91;103307.22;5026348;28;20069;-51
2022/01/21 10:14:57;;;;;;;2.92;1.10;;;;;;;18.34;40.04;103309.06;5025845;28;20041;-51
2022/01/21 10:17:22;;;;;;;3.58;1.33;;;;;;;18.26;40.07;103302.47;5026118;28;20033;-49
2022/01/21 10:19:51;;;;;;;1.65;0.93;;;;;;;18.30;40.30;103317.47;5025791;28;20026;-48
2022/01/21 10:22:18;;;;;;;;;;;;;;;18.25;40.24;103309.69;5026506;28;20033;-50
2022/01/21 10:25:00;;;;;;;3.63;1.15;;;;;;;18.26;40.23;103305.16;5025711;28;19909;-52
2022/01/21 10:27:31;;;;;;;2.38;1.02;;;;;;;18.23;40.40;103304.44;5006489;28;20029;-53
2022/01/21 10:29:57;;;;;;;4.00;1.63;;;;;;;18.22;40.23;103293.75;5006326;28;20030;-50
2022/01/21 10:32:36;;;;;;;1.85;1.10;;;;;;;18.22;40.23;103286.56;5006393;28;20034;-53
2022/01/21 10:35:02;;;;;;;2.65;1.10;;;;;;;18.20;40.54;103296.56;5006018;28;20029;-51
2022/01/21 10:37:34;;;;;;;1.83;0.95;;;;;;;18.20;40.30;103284.91;5005970;28;20026;-48
2022/01/21 10:40:08;;;;;;;2.58;1.05;;;;;;;18.19;40.35;103288.59;5009790;28;20046;-53
2022/01/21 10:42:34;;;;;;;3.58;1.10;;;;;;;18.19;40.55;103288.59;5028286;28;20030;-50
2022/01/21 10:45:00;;;;;;;3.00;1.10;;;;;;;18.21;40.35;103294.72;5025798;28;20049;-53
2022/01/21 10:47:27;;;;;;;2.38;1.10;;;;;;;18.21;40.29;103286.63;5025629;28;20036;-50
2022/01/21 10:50:03;;;;;;;2.25;0.80;;;;;;;18.27;40.46;103296.16;5025242;28;20098;-50
2022/01/21 10:52:42;;;;;;;2.97;1.55;;;;;;;18.29;40.56;103294.19;5025604;28;20056;-51
2022/01/21 10:55:29;;;;;;;2.78;1.00;;;;;;;18.31;40.16;103298.50;5024714;28;20022;-51
2022/01/21 10:58:14;;;;;;;2.42;1.02;;;;;;;18.35;40.39;103296.44;5025526;28;20038;-52
2022/01/21 11:00:59;;;;;;;1.67;1.02;;;;;;;18.41;40.14;103294.19;5025203;28;20564;-51
2022/01/21 11:03:25;;;;;;;3.58;1.42;;;;;;;18.46;40.16;103296.56;5025503;28;20037;-50
2022/01/21 11:05:55;;;;;;;2.58;1.20;;;;;;;18.50;39.87;103292.69;5025033;28;20030;-52
2022/01/21 11:08:26;;;;;;;2.83;1.48;;;;;;;18.53;39.89;103291.63;5007717;28;20053;-51
2022/01/21 11:10:51;;;;;;;2.38;1.13;;;;;;;18.53;39.88;103295.19;5023016;28;20052;-50
2022/01/21 11:13:20;;;;;;;3.67;1.13;;;;;;;18.50;40.02;103295.38;5024164;28;20059;-51
2022/01/21 11:15:46;;;;;;;3.20;1.30;;;;;;;18.46;40.05;103289.34;5024950;28;20030;-49
2022/01/21 11:18:15;;;;;;;2.67;1.10;;;;;;;18.43;40.24;103291.38;5025130;28;20026;-51
2022/01/21 11:20:42;;;;;;;3.63;1.13;;;;;;;18.39;40.18;103293.47;5033061;28;20021;-51
2022/01/21 11:23:09;;;;;;;2.95;1.58;;;;;;;18.36;40.16;103284.72;5042942;28;20045;-52
2022/01/21 11:25:44;;;;;;;2.88;1.38;;;;;;;18.34;40.21;103290.19;5041036;28;20041;-50
2022/01/21 11:28:19;;;;;;;3.30;1.10;;;;;;;18.33;40.57;103296.56;5039764;28;20031;-53
2022/01/21 11:30:45;;;;;;;2.78;1.27;;;;;;;18.34;40.46;103295.59;5040157;28;20082;-48
2022/01/21 11:33:10;;;;;;;3.85;1.00;;;;;;;18.35;40.49;103288.38;5041615;28;20041;-49
2022/01/21 11:35:36;;;;;;;2.80;1.27;;;;;;;18.34;40.60;103279.44;5038601;28;20714;-50
2022/01/21 11:38:04;;;;;;;2.38;1.15;;;;;;;18.35;40.72;103280.28;5020622;28;20040;-52
2022/01/21 11:40:30;;;;;;;3.58;1.13;;;;;;;18.34;40.78;103279.44;5043375;28;20041;-50
2022/01/21 11:42:56;;;;;;;3.60;1.20;;;;;;;18.28;40.89;103257.47;5025622;28;20112;-50
2022/01/21 11:50:49;;;;;;;3.50;1.20;;;;;;;18.33;41.22;103266.06;5013764;28;20068;-52
2022/01/21 11:53:14;;;;;;;3.20;1.15;;;;;;;18.33;41.00;103264.25;5044158;28;20399;-52
2022/01/21 11:55:45;;;;;;;2.70;1.20;;;;;;;18.34;41.01;103262.41;5026009;28;20051;-52
2022/01/21 11:58:19;;;;;;;2.13;1.20;;;;;;;18.34;41.16;103265.97;5044268;28;20049;-51
2022/01/21 12:00:50;;;;;;;3.90;1.40;;;;;;;18.33;41.46;103271.47;5040672;28;20029;-50
2022/01/21 12:03:16;;;;;;;2.83;1.40;;;;;;;18.30;41.39;103258.22;5038273;28;20780;-49
2022/01/21 12:05:41;;;;;;;2.53;1.20;;;;;;;18.30;41.67;103255.50;5038034;28;20026;-49
2022/01/21 12:08:07;;;;;;;1.92;1.08;;;;;;;18.29;41.72;103265.44;5022779;28;20791;-49
2022/01/21 12:10:37;;;;;;;3.15;1.23;;;;;;;18.29;41.69;103253.81;5042845;28;20045;-52
2022/01/21 12:13:13;;;;;;;2.75;1.40;;;;;;;18.29;41.81;103253.81;5040647;28;20048;-50